createdAt,value
2018-08-20T05:38:49.953Z,17.50
2018-08-20T05:43:47.738Z,17.60
2018-08-20T05:48:45.455Z,17.90
2018-08-20T05:53:43.189Z,18.20
2018-08-20T05:58:40.910Z,18.60
2018-08-20T06:03:38.638Z,18.80
2018-08-20T06:08:36.378Z,18.80
2018-08-20T06:13:34.110Z,18.90
2018-08-20T06:18:31.886Z,19.00
2018-08-20T06:23:29.656Z,19.20
2018-08-20T06:28:28.088Z,19.20
2018-08-20T06:33:25.903Z,19.30
2018-08-20T06:38:23.702Z,19.40
2018-08-20T06:43:33.929Z,19.60
2018-08-20T06:48:31.701Z,20.00
2018-08-20T06:53:35.654Z,20.20
2018-08-20T06:58:33.554Z,20.40
2018-08-20T07:03:31.719Z,20.50
2018-08-20T07:08:29.549Z,19.60
2018-08-20T07:13:51.088Z,20.60
2018-08-20T07:18:48.903Z,20.70
2018-08-20T07:23:46.641Z,20.80
2018-08-20T07:28:44.388Z,20.90
2018-08-20T07:34:01.242Z,21.00
2018-08-20T07:38:58.997Z,21.20
2018-08-20T07:49:21.133Z,21.80
2018-08-20T07:54:18.850Z,22.00
2018-08-20T07:59:16.561Z,22.30
2018-08-20T08:04:14.414Z,22.40
2018-08-20T08:09:12.186Z,22.80
2018-08-20T08:14:09.912Z,22.90
2018-08-20T08:19:07.725Z,23.00
2018-08-20T08:24:05.429Z,23.20
2018-08-20T08:29:03.242Z,23.30
2018-08-20T08:34:00.989Z,23.40
2018-08-20T08:38:58.721Z,23.50
2018-08-20T08:49:19.401Z,24.00
2018-08-20T08:54:17.140Z,24.10
2018-08-20T08:59:14.928Z,24.20
2018-08-20T09:04:12.706Z,24.30
2018-08-20T09:09:10.434Z,24.50
2018-08-20T09:14:08.212Z,24.70
2018-08-20T09:19:05.965Z,25.10
2018-08-20T09:24:03.810Z,25.20
2018-08-20T09:29:01.518Z,25.30
2018-08-20T09:33:59.269Z,25.60
2018-08-20T09:38:57.013Z,25.60
2018-08-20T09:43:54.733Z,25.60
2018-08-20T09:48:52.477Z,25.90
2018-08-20T09:53:50.291Z,26.20
2018-08-20T09:58:48.031Z,26.30
2018-08-20T10:03:46.313Z,26.30
2018-08-20T10:08:44.238Z,26.40
2018-08-20T10:13:41.914Z,26.60
2018-08-20T10:18:39.678Z,26.70
2018-08-20T10:23:37.406Z,26.90
2018-08-20T10:28:35.128Z,27.10
2018-08-20T10:33:32.875Z,27.20
2018-08-20T10:38:30.614Z,27.10
2018-08-20T10:43:28.313Z,27.30
2018-08-20T10:48:26.222Z,25.70
2018-08-20T10:53:24.029Z,27.60
2018-08-20T10:58:21.825Z,27.70
2018-08-20T11:03:19.602Z,27.80
2018-08-20T11:08:17.325Z,27.90
2018-08-20T11:13:15.178Z,28.30
2018-08-20T11:18:13.003Z,28.50
2018-08-20T11:23:10.666Z,28.70
2018-08-20T11:28:08.417Z,29.00
2018-08-20T11:33:07.272Z,29.20
2018-08-20T11:38:05.569Z,29.20
2018-08-20T11:43:03.364Z,29.10
2018-08-20T11:48:01.109Z,29.50
2018-08-20T11:52:58.809Z,29.60
2018-08-20T11:57:56.554Z,27.70
2018-08-20T12:02:54.283Z,29.80
2018-08-20T12:07:52.005Z,29.70
2018-08-20T12:12:49.803Z,29.60
2018-08-20T12:17:47.557Z,29.80
2018-08-20T12:22:57.530Z,29.80
2018-08-20T12:27:55.205Z,29.90
2018-08-20T12:32:52.941Z,30.00
2018-08-20T12:37:50.649Z,30.10
2018-08-20T12:42:48.357Z,30.30
2018-08-20T12:47:46.081Z,30.30
2018-08-20T12:52:43.796Z,30.30
2018-08-20T12:57:41.556Z,30.30
2018-08-20T13:02:39.321Z,30.20
2018-08-20T13:07:37.034Z,30.10
2018-08-20T13:12:34.742Z,30.10
2018-08-20T13:17:32.457Z,30.20
2018-08-20T13:22:30.195Z,30.10
2018-08-20T13:27:27.897Z,30.30
2018-08-20T13:32:25.650Z,30.70
2018-08-20T13:37:23.496Z,30.60
2018-08-20T13:42:21.146Z,30.40
2018-08-20T13:47:18.854Z,30.30
2018-08-20T13:52:16.715Z,30.50
2018-08-20T13:57:14.437Z,30.70
2018-08-20T14:02:12.166Z,30.50
2018-08-20T14:07:09.897Z,30.70
2018-08-20T14:12:07.629Z,30.80
2018-08-20T14:17:05.363Z,30.80
2018-08-20T14:22:03.146Z,30.80
2018-08-20T14:27:00.875Z,30.90
2018-08-20T14:31:58.585Z,31.00
2018-08-20T14:36:56.406Z,30.90
2018-08-20T14:41:54.069Z,30.90
2018-08-20T14:46:51.773Z,30.80
2018-08-20T14:51:49.465Z,30.90
2018-08-20T14:56:47.188Z,30.90
2018-08-20T15:01:44.906Z,30.80
2018-08-20T15:06:57.050Z,30.80
2018-08-20T15:11:55.338Z,30.90
2018-08-20T15:16:53.643Z,31.00
2018-08-20T15:21:51.366Z,30.90
2018-08-20T15:26:49.901Z,30.70
2018-08-20T15:31:47.705Z,30.50
2018-08-20T15:36:45.528Z,30.40
2018-08-20T15:41:43.249Z,30.40
2018-08-20T15:46:40.977Z,30.40
2018-08-20T15:51:38.702Z,30.40
2018-08-20T15:56:36.406Z,30.30
2018-08-20T16:01:34.135Z,30.20
2018-08-20T16:06:31.873Z,30.10
2018-08-20T16:11:29.625Z,30.10
2018-08-20T16:16:27.326Z,30.10
2018-08-20T16:21:25.029Z,30.40
2018-08-20T16:26:22.749Z,30.50
2018-08-20T16:31:20.517Z,30.10
2018-08-20T16:36:18.277Z,29.90
2018-08-20T16:41:16.057Z,29.70
2018-08-20T16:46:13.801Z,29.80
2018-08-20T16:51:11.737Z,29.80
2018-08-20T16:56:09.464Z,29.60
2018-08-20T17:01:13.153Z,29.20
2018-08-20T17:06:10.851Z,28.90
2018-08-20T17:11:08.721Z,28.80
2018-08-20T17:16:09.222Z,28.60
2018-08-20T17:21:07.032Z,28.40
2018-08-20T17:26:05.226Z,28.30
2018-08-20T17:31:06.454Z,28.10
2018-08-20T17:36:06.884Z,28.00
2018-08-20T17:41:07.178Z,27.80
2018-08-20T18:09:30.045Z,26.70
2018-08-20T18:14:27.802Z,26.50
2018-08-20T18:19:25.624Z,26.50
2018-08-20T18:24:23.297Z,26.30
2018-08-20T18:29:21.149Z,26.10
2018-08-20T18:34:19.007Z,25.90
2018-08-20T18:39:16.890Z,25.90
2018-08-20T18:44:14.678Z,25.70
2018-08-20T18:49:12.446Z,25.60
2018-08-20T18:54:10.206Z,25.40
2018-08-20T18:59:07.921Z,25.20
2018-08-20T19:04:05.718Z,25.10
2018-08-20T19:09:04.210Z,24.90
2018-08-20T19:14:06.510Z,24.90
2018-08-20T19:19:05.109Z,24.70
2018-08-20T19:24:02.833Z,24.60
2018-08-20T19:29:10.506Z,24.50
